sensor_id;sensor_type;location;lat;lon;timestamp;P1;durP1;ratioP1;P2;durP2;ratioP2
10985;SDS011;5546;48.714;8.738;2023-02-11T00:03:47;28.70;;;16.53;;
10985;SDS011;5546;48.714;8.738;2023-02-11T00:06:13;26.33;;;15.70;;
10985;SDS011;5546;48.714;8.738;2023-02-11T00:08:39;29.57;;;16.20;;
10985;SDS011;5546;48.714;8.738;2023-02-11T00:11:04;25.20;;;15.47;;
10985;SDS011;5546;48.714;8.738;2023-02-11T00:13:30;32.23;;;17.10;;
10985;SDS011;5546;48.714;8.738;2023-02-11T00:15:56;27.60;;;15.87;;
10985;SDS011;5546;48.714;8.738;2023-02-11T00:18:22;26.47;;;15.87;;
10985;SDS011;5546;48.714;8.738;2023-02-11T00:20:47;30.33;;;16.13;;
10985;SDS011;5546;48.714;8.738;2023-02-11T00:23:13;28.10;;;15.23;;
10985;SDS011;5546;48.714;8.738;2023-02-11T00:25:39;23.93;;;14.93;;
10985;SDS011;5546;48.714;8.738;2023-02-11T00:28:07;27.77;;;15.17;;
10985;SDS011;5546;48.714;8.738;2023-02-11T00:30:33;28.03;;;15.70;;
10985;SDS011;5546;48.714;8.738;2023-02-11T00:33:00;27.70;;;15.70;;
10985;SDS011;5546;48.714;8.738;2023-02-11T00:35:26;26.77;;;15.87;;
10985;SDS011;5546;48.714;8.738;2023-02-11T00:37:52;25.80;;;14.73;;
10985;SDS011;5546;48.714;8.738;2023-02-11T00:40:18;25.53;;;15.43;;
10985;SDS011;5546;48.714;8.738;2023-02-11T00:42:44;26.30;;;15.13;;
10985;SDS011;5546;48.714;8.738;2023-02-11T00:45:10;26.07;;;15.87;;
10985;SDS011;5546;48.714;8.738;2023-02-11T00:47:36;25.37;;;15.30;;
10985;SDS011;5546;48.714;8.738;2023-02-11T00:50:02;26.23;;;15.20;;
10985;SDS011;5546;48.714;8.738;2023-02-11T00:52:29;25.27;;;14.87;;
10985;SDS011;5546;48.714;8.738;2023-02-11T00:54:55;23.53;;;14.27;;
10985;SDS011;5546;48.714;8.738;2023-02-11T00:57:21;24.80;;;14.47;;
10985;SDS011;5546;48.714;8.738;2023-02-11T00:59:46;25.63;;;14.73;;
10985;SDS011;5546;48.714;8.738;2023-02-11T01:02:12;23.73;;;14.67;;
10985;SDS011;5546;48.714;8.738;2023-02-11T01:04:37;26.20;;;14.97;;
10985;SDS011;5546;48.714;8.738;2023-02-11T01:07:03;24.07;;;14.13;;
10985;SDS011;5546;48.714;8.738;2023-02-11T01:09:28;26.43;;;15.40;;
10985;SDS011;5546;48.714;8.738;2023-02-11T01:11:54;23.63;;;14.53;;
10985;SDS011;5546;48.714;8.738;2023-02-11T01:14:19;25.07;;;15.47;;
10985;SDS011;5546;48.714;8.738;2023-02-11T01:16:45;25.57;;;14.57;;
10985;SDS011;5546;48.714;8.738;2023-02-11T01:19:10;23.67;;;14.23;;
10985;SDS011;5546;48.714;8.738;2023-02-11T01:21:36;23.70;;;13.23;;
10985;SDS011;5546;48.714;8.738;2023-02-11T01:24:01;25.30;;;14.80;;
10985;SDS011;5546;48.714;8.738;2023-02-11T01:26:27;24.13;;;14.07;;
10985;SDS011;5546;48.714;8.738;2023-02-11T01:28:52;21.40;;;13.93;;
10985;SDS011;5546;48.714;8.738;2023-02-11T01:31:18;21.53;;;13.60;;
10985;SDS011;5546;48.714;8.738;2023-02-11T01:33:44;24.23;;;13.80;;
10985;SDS011;5546;48.714;8.738;2023-02-11T01:36:09;25.83;;;15.27;;
10985;SDS011;5546;48.714;8.738;2023-02-11T01:38:36;22.37;;;13.87;;
10985;SDS011;5546;48.714;8.738;2023-02-11T01:41:03;20.73;;;12.83;;
10985;SDS011;5546;48.714;8.738;2023-02-11T01:43:32;22.33;;;13.87;;
10985;SDS011;5546;48.714;8.738;2023-02-11T01:46:01;22.20;;;13.63;;
10985;SDS011;5546;48.714;8.738;2023-02-11T01:48:39;21.77;;;13.13;;
10985;SDS011;5546;48.714;8.738;2023-02-11T01:51:25;29.37;;;16.17;;
10985;SDS011;5546;48.714;8.738;2023-02-11T01:53:56;24.37;;;14.60;;
10985;SDS011;5546;48.714;8.738;2023-02-11T01:56:43;27.33;;;16.13;;
10985;SDS011;5546;48.714;8.738;2023-02-11T02:00:33;25.20;;;14.37;;
10985;SDS011;5546;48.714;8.738;2023-02-11T02:02:39;19.70;;;12.33;;
10985;SDS011;5546;48.714;8.738;2023-02-11T02:08:02;19.17;;;12.17;;
10985;SDS011;5546;48.714;8.738;2023-02-11T02:10:42;33.27;;;15.67;;
10985;SDS011;5546;48.714;8.738;2023-02-11T02:13:10;21.43;;;12.30;;
10985;SDS011;5546;48.714;8.738;2023-02-11T02:15:37;21.77;;;12.80;;
10985;SDS011;5546;48.714;8.738;2023-02-11T02:29:45;24.00;;;13.33;;
10985;SDS011;5546;48.714;8.738;2023-02-11T02:35:35;21.80;;;12.90;;
10985;SDS011;5546;48.714;8.738;2023-02-11T02:38:17;21.60;;;12.93;;
10985;SDS011;5546;48.714;8.738;2023-02-11T02:40:59;19.07;;;12.23;;
10985;SDS011;5546;48.714;8.738;2023-02-11T02:43:28;20.33;;;13.80;;
10985;SDS011;5546;48.714;8.738;2023-02-11T02:45:55;18.77;;;11.87;;
10985;SDS011;5546;48.714;8.738;2023-02-11T02:48:32;20.67;;;12.27;;
10985;SDS011;5546;48.714;8.738;2023-02-11T02:53:53;25.23;;;14.20;;
10985;SDS011;5546;48.714;8.738;2023-02-11T02:56:39;23.20;;;13.20;;
10985;SDS011;5546;48.714;8.738;2023-02-11T03:04:51;24.67;;;14.57;;
10985;SDS011;5546;48.714;8.738;2023-02-11T03:07:24;23.70;;;14.50;;
10985;SDS011;5546;48.714;8.738;2023-02-11T03:10:08;21.13;;;12.93;;
10985;SDS011;5546;48.714;8.738;2023-02-11T03:12:41;30.20;;;16.63;;
10985;SDS011;5546;48.714;8.738;2023-02-11T03:15:08;31.50;;;16.33;;
10985;SDS011;5546;48.714;8.738;2023-02-11T03:17:36;23.07;;;13.47;;
10985;SDS011;5546;48.714;8.738;2023-02-11T03:20:05;24.10;;;14.50;;
10985;SDS011;5546;48.714;8.738;2023-02-11T03:22:35;19.90;;;12.37;;
10985;SDS011;5546;48.714;8.738;2023-02-11T03:25:07;22.97;;;13.63;;
10985;SDS011;5546;48.714;8.738;2023-02-11T03:30:20;23.47;;;13.37;;
10985;SDS011;5546;48.714;8.738;2023-02-11T03:32:53;22.10;;;12.47;;
10985;SDS011;5546;48.714;8.738;2023-02-11T03:35:45;22.57;;;13.17;;
10985;SDS011;5546;48.714;8.738;2023-02-11T03:38:19;27.27;;;15.83;;
10985;SDS011;5546;48.714;8.738;2023-02-11T03:40:49;28.07;;;15.90;;
10985;SDS011;5546;48.714;8.738;2023-02-11T03:45:47;25.77;;;16.33;;
10985;SDS011;5546;48.714;8.738;2023-02-11T03:48:22;28.00;;;16.57;;
10985;SDS011;5546;48.714;8.738;2023-02-11T03:50:51;25.47;;;14.87;;
10985;SDS011;5546;48.714;8.738;2023-02-11T03:53:18;23.60;;;14.07;;
10985;SDS011;5546;48.714;8.738;2023-02-11T03:55:45;24.70;;;15.43;;
10985;SDS011;5546;48.714;8.738;2023-02-11T03:58:13;31.77;;;17.23;;
10985;SDS011;5546;48.714;8.738;2023-02-11T04:00:39;30.37;;;16.60;;
10985;SDS011;5546;48.714;8.738;2023-02-11T04:03:06;27.10;;;16.73;;
10985;SDS011;5546;48.714;8.738;2023-02-11T04:05:33;26.60;;;15.83;;
10985;SDS011;5546;48.714;8.738;2023-02-11T04:07:59;28.43;;;16.90;;
10985;SDS011;5546;48.714;8.738;2023-02-11T04:10:24;25.33;;;16.47;;
10985;SDS011;5546;48.714;8.738;2023-02-11T04:12:50;27.03;;;15.60;;
10985;SDS011;5546;48.714;8.738;2023-02-11T04:15:15;26.63;;;15.43;;
10985;SDS011;5546;48.714;8.738;2023-02-11T04:17:41;24.50;;;14.37;;
10985;SDS011;5546;48.714;8.738;2023-02-11T04:20:07;28.03;;;15.40;;
10985;SDS011;5546;48.714;8.738;2023-02-11T04:22:33;28.00;;;16.70;;
10985;SDS011;5546;48.714;8.738;2023-02-11T04:24:58;24.23;;;14.80;;
10985;SDS011;5546;48.714;8.738;2023-02-11T04:27:24;27.03;;;16.27;;
10985;SDS011;5546;48.714;8.738;2023-02-11T04:29:50;24.40;;;15.37;;
10985;SDS011;5546;48.714;8.738;2023-02-11T04:32:15;26.20;;;15.07;;
10985;SDS011;5546;48.714;8.738;2023-02-11T04:34:41;23.67;;;14.67;;
10985;SDS011;5546;48.714;8.738;2023-02-11T04:37:06;22.50;;;14.83;;
10985;SDS011;5546;48.714;8.738;2023-02-11T04:39:32;24.20;;;14.77;;
10985;SDS011;5546;48.714;8.738;2023-02-11T04:41:58;27.23;;;15.70;;
10985;SDS011;5546;48.714;8.738;2023-02-11T04:44:23;25.10;;;15.50;;
10985;SDS011;5546;48.714;8.738;2023-02-11T04:46:49;24.57;;;15.30;;
10985;SDS011;5546;48.714;8.738;2023-02-11T04:49:15;29.83;;;15.37;;
10985;SDS011;5546;48.714;8.738;2023-02-11T04:51:41;25.43;;;15.70;;
10985;SDS011;5546;48.714;8.738;2023-02-11T04:54:07;22.00;;;15.10;;
10985;SDS011;5546;48.714;8.738;2023-02-11T04:56:32;26.23;;;15.10;;
10985;SDS011;5546;48.714;8.738;2023-02-11T04:58:58;26.23;;;15.00;;
10985;SDS011;5546;48.714;8.738;2023-02-11T05:01:23;28.53;;;16.00;;
10985;SDS011;5546;48.714;8.738;2023-02-11T05:03:49;29.30;;;15.23;;
10985;SDS011;5546;48.714;8.738;2023-02-11T05:06:15;26.17;;;14.77;;
10985;SDS011;5546;48.714;8.738;2023-02-11T05:08:40;23.30;;;13.93;;
10985;SDS011;5546;48.714;8.738;2023-02-11T05:11:06;23.70;;;14.63;;
10985;SDS011;5546;48.714;8.738;2023-02-11T05:13:38;25.90;;;14.00;;
10985;SDS011;5546;48.714;8.738;2023-02-11T05:16:03;22.70;;;14.10;;
10985;SDS011;5546;48.714;8.738;2023-02-11T05:18:29;22.23;;;13.87;;
10985;SDS011;5546;48.714;8.738;2023-02-11T05:20:55;20.87;;;13.73;;
10985;SDS011;5546;48.714;8.738;2023-02-11T05:23:20;24.37;;;13.30;;
10985;SDS011;5546;48.714;8.738;2023-02-11T05:25:46;23.33;;;13.80;;
10985;SDS011;5546;48.714;8.738;2023-02-11T05:28:11;23.77;;;15.13;;
10985;SDS011;5546;48.714;8.738;2023-02-11T05:30:37;24.13;;;14.63;;
10985;SDS011;5546;48.714;8.738;2023-02-11T05:33:02;21.60;;;13.60;;
10985;SDS011;5546;48.714;8.738;2023-02-11T05:35:28;21.43;;;13.97;;
10985;SDS011;5546;48.714;8.738;2023-02-11T05:37:53;21.33;;;14.13;;
10985;SDS011;5546;48.714;8.738;2023-02-11T05:40:19;20.60;;;13.27;;
10985;SDS011;5546;48.714;8.738;2023-02-11T05:42:44;21.80;;;13.90;;
10985;SDS011;5546;48.714;8.738;2023-02-11T05:45:10;21.90;;;14.10;;
10985;SDS011;5546;48.714;8.738;2023-02-11T05:47:35;22.53;;;13.83;;
10985;SDS011;5546;48.714;8.738;2023-02-11T05:50:01;19.70;;;13.43;;
10985;SDS011;5546;48.714;8.738;2023-02-11T05:52:27;23.73;;;13.67;;
10985;SDS011;5546;48.714;8.738;2023-02-11T05:54:52;23.83;;;13.77;;
10985;SDS011;5546;48.714;8.738;2023-02-11T05:57:18;25.87;;;13.90;;
10985;SDS011;5546;48.714;8.738;2023-02-11T05:59:43;26.10;;;15.77;;
10985;SDS011;5546;48.714;8.738;2023-02-11T06:02:09;21.40;;;14.37;;
10985;SDS011;5546;48.714;8.738;2023-02-11T06:04:35;20.93;;;14.23;;
10985;SDS011;5546;48.714;8.738;2023-02-11T06:07:01;22.53;;;14.73;;
10985;SDS011;5546;48.714;8.738;2023-02-11T06:09:27;23.70;;;15.10;;
10985;SDS011;5546;48.714;8.738;2023-02-11T06:11:53;33.10;;;25.53;;
10985;SDS011;5546;48.714;8.738;2023-02-11T06:14:18;23.87;;;16.50;;
10985;SDS011;5546;48.714;8.738;2023-02-11T06:16:44;21.10;;;13.17;;
10985;SDS011;5546;48.714;8.738;2023-02-11T06:19:10;21.30;;;13.13;;
10985;SDS011;5546;48.714;8.738;2023-02-11T06:21:36;21.43;;;13.13;;
10985;SDS011;5546;48.714;8.738;2023-02-11T06:24:02;24.90;;;12.60;;
10985;SDS011;5546;48.714;8.738;2023-02-11T06:26:29;24.77;;;13.23;;
10985;SDS011;5546;48.714;8.738;2023-02-11T06:28:55;21.37;;;13.17;;
10985;SDS011;5546;48.714;8.738;2023-02-11T06:31:20;20.07;;;12.37;;
10985;SDS011;5546;48.714;8.738;2023-02-11T06:33:46;20.43;;;12.10;;
10985;SDS011;5546;48.714;8.738;2023-02-11T06:36:18;19.67;;;11.77;;
10985;SDS011;5546;48.714;8.738;2023-02-11T06:38:45;20.60;;;12.80;;
10985;SDS011;5546;48.714;8.738;2023-02-11T06:41:12;18.40;;;12.27;;
10985;SDS011;5546;48.714;8.738;2023-02-11T06:43:39;18.80;;;13.10;;
10985;SDS011;5546;48.714;8.738;2023-02-11T06:46:05;20.97;;;12.30;;
10985;SDS011;5546;48.714;8.738;2023-02-11T06:48:31;16.20;;;10.23;;
10985;SDS011;5546;48.714;8.738;2023-02-11T06:51:05;18.53;;;11.37;;
10985;SDS011;5546;48.714;8.738;2023-02-11T06:53:36;19.93;;;12.63;;
10985;SDS011;5546;48.714;8.738;2023-02-11T06:56:04;27.20;;;15.70;;
10985;SDS011;5546;48.714;8.738;2023-02-11T06:58:31;22.93;;;14.30;;
10985;SDS011;5546;48.714;8.738;2023-02-11T07:00:57;135.50;;;70.27;;
10985;SDS011;5546;48.714;8.738;2023-02-11T07:03:23;44.50;;;28.27;;
10985;SDS011;5546;48.714;8.738;2023-02-11T07:05:48;19.13;;;11.90;;
10985;SDS011;5546;48.714;8.738;2023-02-11T07:08:14;22.40;;;12.40;;
10985;SDS011;5546;48.714;8.738;2023-02-11T07:10:39;20.10;;;12.83;;
10985;SDS011;5546;48.714;8.738;2023-02-11T07:13:05;20.03;;;12.07;;
10985;SDS011;5546;48.714;8.738;2023-02-11T07:15:30;23.60;;;15.17;;
10985;SDS011;5546;48.714;8.738;2023-02-11T07:17:56;46.67;;;32.53;;
10985;SDS011;5546;48.714;8.738;2023-02-11T07:20:22;24.13;;;16.10;;
10985;SDS011;5546;48.714;8.738;2023-02-11T07:22:47;19.00;;;12.37;;
10985;SDS011;5546;48.714;8.738;2023-02-11T07:25:13;18.03;;;11.03;;
10985;SDS011;5546;48.714;8.738;2023-02-11T07:27:38;20.33;;;11.47;;
10985;SDS011;5546;48.714;8.738;2023-02-11T07:30:04;19.93;;;11.00;;
10985;SDS011;5546;48.714;8.738;2023-02-11T07:32:30;19.23;;;11.47;;
10985;SDS011;5546;48.714;8.738;2023-02-11T07:34:55;17.40;;;11.77;;
10985;SDS011;5546;48.714;8.738;2023-02-11T07:37:21;18.87;;;12.07;;
10985;SDS011;5546;48.714;8.738;2023-02-11T07:39:47;17.73;;;11.90;;
10985;SDS011;5546;48.714;8.738;2023-02-11T07:42:12;19.17;;;12.00;;
10985;SDS011;5546;48.714;8.738;2023-02-11T07:44:38;19.87;;;12.50;;
10985;SDS011;5546;48.714;8.738;2023-02-11T07:47:03;19.10;;;11.90;;
10985;SDS011;5546;48.714;8.738;2023-02-11T07:49:29;18.03;;;11.47;;
10985;SDS011;5546;48.714;8.738;2023-02-11T07:51:55;19.00;;;11.50;;
10985;SDS011;5546;48.714;8.738;2023-02-11T07:54:20;17.27;;;11.03;;
10985;SDS011;5546;48.714;8.738;2023-02-11T07:56:46;16.57;;;10.90;;
10985;SDS011;5546;48.714;8.738;2023-02-11T07:59:11;15.90;;;10.60;;
10985;SDS011;5546;48.714;8.738;2023-02-11T08:01:37;19.20;;;11.23;;
10985;SDS011;5546;48.714;8.738;2023-02-11T08:04:02;18.47;;;11.67;;
10985;SDS011;5546;48.714;8.738;2023-02-11T08:06:29;17.17;;;11.43;;
10985;SDS011;5546;48.714;8.738;2023-02-11T08:08:56;18.63;;;10.63;;
10985;SDS011;5546;48.714;8.738;2023-02-11T08:11:23;18.30;;;10.63;;
10985;SDS011;5546;48.714;8.738;2023-02-11T08:13:51;16.20;;;10.70;;
10985;SDS011;5546;48.714;8.738;2023-02-11T08:16:18;15.70;;;10.40;;
10985;SDS011;5546;48.714;8.738;2023-02-11T08:18:48;14.33;;;10.03;;
10985;SDS011;5546;48.714;8.738;2023-02-11T08:21:14;14.37;;;10.97;;
10985;SDS011;5546;48.714;8.738;2023-02-11T08:23:44;15.67;;;9.67;;
10985;SDS011;5546;48.714;8.738;2023-02-11T08:26:11;15.03;;;9.97;;
10985;SDS011;5546;48.714;8.738;2023-02-11T08:28:38;16.80;;;10.17;;
10985;SDS011;5546;48.714;8.738;2023-02-11T08:31:06;16.93;;;10.57;;
10985;SDS011;5546;48.714;8.738;2023-02-11T08:33:32;15.33;;;9.90;;
10985;SDS011;5546;48.714;8.738;2023-02-11T08:35:58;15.10;;;10.93;;
10985;SDS011;5546;48.714;8.738;2023-02-11T08:38:24;18.60;;;10.70;;
10985;SDS011;5546;48.714;8.738;2023-02-11T08:40:49;15.30;;;10.07;;
10985;SDS011;5546;48.714;8.738;2023-02-11T08:43:15;14.20;;;10.00;;
10985;SDS011;5546;48.714;8.738;2023-02-11T08:45:40;14.67;;;10.57;;
10985;SDS011;5546;48.714;8.738;2023-02-11T08:48:06;15.97;;;11.10;;
10985;SDS011;5546;48.714;8.738;2023-02-11T08:50:31;16.33;;;10.60;;
10985;SDS011;5546;48.714;8.738;2023-02-11T08:52:58;16.67;;;10.47;;
10985;SDS011;5546;48.714;8.738;2023-02-11T08:55:23;12.50;;;9.23;;
10985;SDS011;5546;48.714;8.738;2023-02-11T08:57:49;13.17;;;9.57;;
10985;SDS011;5546;48.714;8.738;2023-02-11T09:00:15;13.33;;;8.93;;
10985;SDS011;5546;48.714;8.738;2023-02-11T09:02:41;13.77;;;10.07;;
10985;SDS011;5546;48.714;8.738;2023-02-11T09:05:07;12.77;;;9.03;;
10985;SDS011;5546;48.714;8.738;2023-02-11T09:07:33;14.77;;;9.30;;
10985;SDS011;5546;48.714;8.738;2023-02-11T09:09:58;13.37;;;9.20;;
10985;SDS011;5546;48.714;8.738;2023-02-11T09:12:24;13.60;;;9.43;;
10985;SDS011;5546;48.714;8.738;2023-02-11T09:14:49;14.83;;;9.37;;
10985;SDS011;5546;48.714;8.738;2023-02-11T09:17:15;12.00;;;8.80;;
10985;SDS011;5546;48.714;8.738;2023-02-11T09:19:40;14.13;;;9.30;;
10985;SDS011;5546;48.714;8.738;2023-02-11T09:22:06;13.73;;;8.93;;
10985;SDS011;5546;48.714;8.738;2023-02-11T09:24:31;13.70;;;9.50;;
10985;SDS011;5546;48.714;8.738;2023-02-11T09:26:57;11.80;;;8.83;;
10985;SDS011;5546;48.714;8.738;2023-02-11T09:29:22;15.37;;;9.17;;
10985;SDS011;5546;48.714;8.738;2023-02-11T09:31:48;12.00;;;9.53;;
10985;SDS011;5546;48.714;8.738;2023-02-11T09:34:14;12.00;;;9.23;;
10985;SDS011;5546;48.714;8.738;2023-02-11T09:36:40;12.33;;;9.50;;
10985;SDS011;5546;48.714;8.738;2023-02-11T09:39:07;11.43;;;9.20;;
10985;SDS011;5546;48.714;8.738;2023-02-11T09:44:37;13.80;;;8.70;;
10985;SDS011;5546;48.714;8.738;2023-02-11T09:47:04;12.53;;;8.97;;
10985;SDS011;5546;48.714;8.738;2023-02-11T09:50:04;10.97;;;9.20;;
10985;SDS011;5546;48.714;8.738;2023-02-11T09:52:39;11.40;;;8.57;;
10985;SDS011;5546;48.714;8.738;2023-02-11T09:55:14;9.83;;;7.83;;
10985;SDS011;5546;48.714;8.738;2023-02-11T09:57:44;9.60;;;8.50;;
10985;SDS011;5546;48.714;8.738;2023-02-11T10:10:58;12.00;;;9.18;;
10985;SDS011;5546;48.714;8.738;2023-02-11T10:13:43;10.88;;;9.20;;
10985;SDS011;5546;48.714;8.738;2023-02-11T10:16:33;10.38;;;8.93;;
10985;SDS011;5546;48.714;8.738;2023-02-11T10:19:25;10.55;;;9.00;;
10985;SDS011;5546;48.714;8.738;2023-02-11T10:24:33;13.35;;;10.18;;
10985;SDS011;5546;48.714;8.738;2023-02-11T10:27:00;10.38;;;8.95;;
10985;SDS011;5546;48.714;8.738;2023-02-11T10:29:40;9.82;;;8.75;;
10985;SDS011;5546;48.714;8.738;2023-02-11T10:32:15;10.30;;;9.20;;
10985;SDS011;5546;48.714;8.738;2023-02-11T10:34:46;10.05;;;8.75;;
10985;SDS011;5546;48.714;8.738;2023-02-11T10:37:12;10.38;;;8.73;;
10985;SDS011;5546;48.714;8.738;2023-02-11T10:39:39;13.60;;;10.45;;
10985;SDS011;5546;48.714;8.738;2023-02-11T10:42:06;9.95;;;8.70;;
10985;SDS011;5546;48.714;8.738;2023-02-11T10:44:39;10.15;;;8.68;;
10985;SDS011;5546;48.714;8.738;2023-02-11T10:47:13;9.60;;;8.60;;
10985;SDS011;5546;48.714;8.738;2023-02-11T10:49:46;10.93;;;9.60;;
10985;SDS011;5546;48.714;8.738;2023-02-11T10:54:56;9.30;;;8.30;;
10985;SDS011;5546;48.714;8.738;2023-02-11T11:02:56;6.85;;;6.10;;
10985;SDS011;5546;48.714;8.738;2023-02-11T11:05:28;6.03;;;5.40;;
10985;SDS011;5546;48.714;8.738;2023-02-11T11:08:09;6.03;;;5.15;;
10985;SDS011;5546;48.714;8.738;2023-02-11T11:10:41;6.05;;;5.43;;
10985;SDS011;5546;48.714;8.738;2023-02-11T11:13:24;7.25;;;4.93;;
10985;SDS011;5546;48.714;8.738;2023-02-11T11:16:06;5.60;;;4.45;;
10985;SDS011;5546;48.714;8.738;2023-02-11T11:18:33;5.60;;;4.70;;
10985;SDS011;5546;48.714;8.738;2023-02-11T11:21:00;5.00;;;4.50;;
10985;SDS011;5546;48.714;8.738;2023-02-11T11:23:31;6.38;;;4.55;;
10985;SDS011;5546;48.714;8.738;2023-02-11T11:31:21;5.20;;;4.55;;
10985;SDS011;5546;48.714;8.738;2023-02-11T11:33:52;5.13;;;4.50;;
10985;SDS011;5546;48.714;8.738;2023-02-11T11:36:42;4.40;;;4.00;;
10985;SDS011;5546;48.714;8.738;2023-02-11T11:39:16;5.10;;;4.50;;
10985;SDS011;5546;48.714;8.738;2023-02-11T11:41:50;4.93;;;4.20;;
10985;SDS011;5546;48.714;8.738;2023-02-11T11:44:27;7.00;;;5.13;;
10985;SDS011;5546;48.714;8.738;2023-02-11T11:47:06;4.70;;;4.18;;
10985;SDS011;5546;48.714;8.738;2023-02-11T11:52:53;5.53;;;4.53;;
10985;SDS011;5546;48.714;8.738;2023-02-11T11:55:26;4.80;;;4.07;;
10985;SDS011;5546;48.714;8.738;2023-02-11T11:57:56;4.97;;;4.20;;
10985;SDS011;5546;48.714;8.738;2023-02-11T12:00:25;5.75;;;4.60;;
10985;SDS011;5546;48.714;8.738;2023-02-11T12:06:03;4.63;;;3.83;;
10985;SDS011;5546;48.714;8.738;2023-02-11T12:11:26;4.88;;;3.85;;
10985;SDS011;5546;48.714;8.738;2023-02-11T12:14:15;6.82;;;4.10;;
10985;SDS011;5546;48.714;8.738;2023-02-11T12:17:10;4.68;;;3.85;;
10985;SDS011;5546;48.714;8.738;2023-02-11T12:20:18;4.45;;;3.50;;
10985;SDS011;5546;48.714;8.738;2023-02-11T12:23:19;4.15;;;3.55;;
10985;SDS011;5546;48.714;8.738;2023-02-11T12:26:15;7.07;;;6.38;;
10985;SDS011;5546;48.714;8.738;2023-02-11T12:39:43;5.10;;;3.80;;
10985;SDS011;5546;48.714;8.738;2023-02-11T12:45:28;3.30;;;2.93;;
10985;SDS011;5546;48.714;8.738;2023-02-11T12:58:47;4.87;;;3.80;;
10985;SDS011;5546;48.714;8.738;2023-02-11T13:01:20;5.13;;;3.53;;
10985;SDS011;5546;48.714;8.738;2023-02-11T13:06:24;6.17;;;3.30;;
10985;SDS011;5546;48.714;8.738;2023-02-11T13:09:00;5.80;;;3.73;;
10985;SDS011;5546;48.714;8.738;2023-02-11T13:11:35;5.10;;;4.07;;
10985;SDS011;5546;48.714;8.738;2023-02-11T13:16:44;5.30;;;3.67;;
10985;SDS011;5546;48.714;8.738;2023-02-11T13:35:41;8.07;;;4.73;;
10985;SDS011;5546;48.714;8.738;2023-02-11T13:41:32;8.20;;;5.50;;
10985;SDS011;5546;48.714;8.738;2023-02-11T13:49:31;8.50;;;5.50;;
10985;SDS011;5546;48.714;8.738;2023-02-11T13:52:00;12.43;;;7.83;;
10985;SDS011;5546;48.714;8.738;2023-02-11T13:54:30;8.97;;;6.67;;
10985;SDS011;5546;48.714;8.738;2023-02-11T14:02:22;12.23;;;8.23;;
10985;SDS011;5546;48.714;8.738;2023-02-11T14:08:12;11.20;;;7.63;;
10985;SDS011;5546;48.714;8.738;2023-02-11T14:11:03;8.43;;;5.87;;
10985;SDS011;5546;48.714;8.738;2023-02-11T14:16:22;11.67;;;6.30;;
10985;SDS011;5546;48.714;8.738;2023-02-11T14:32:06;11.90;;;6.53;;
10985;SDS011;5546;48.714;8.738;2023-02-11T14:34:59;11.87;;;6.57;;
10985;SDS011;5546;48.714;8.738;2023-02-11T14:37:43;9.53;;;6.07;;
10985;SDS011;5546;48.714;8.738;2023-02-11T14:40:29;8.27;;;5.57;;
10985;SDS011;5546;48.714;8.738;2023-02-11T14:43:16;9.20;;;6.40;;
10985;SDS011;5546;48.714;8.738;2023-02-11T14:45:47;9.00;;;5.93;;
10985;SDS011;5546;48.714;8.738;2023-02-11T14:48:16;9.03;;;5.37;;
10985;SDS011;5546;48.714;8.738;2023-02-11T14:50:48;8.87;;;6.33;;
10985;SDS011;5546;48.714;8.738;2023-02-11T14:53:21;8.60;;;6.23;;
10985;SDS011;5546;48.714;8.738;2023-02-11T14:55:50;9.03;;;5.77;;
10985;SDS011;5546;48.714;8.738;2023-02-11T14:58:18;10.57;;;6.17;;
10985;SDS011;5546;48.714;8.738;2023-02-11T15:03:34;9.10;;;5.60;;
10985;SDS011;5546;48.714;8.738;2023-02-11T15:08:31;10.00;;;6.33;;
10985;SDS011;5546;48.714;8.738;2023-02-11T15:11:01;7.87;;;5.77;;
10985;SDS011;5546;48.714;8.738;2023-02-11T15:13:31;8.87;;;5.57;;
10985;SDS011;5546;48.714;8.738;2023-02-11T15:16:04;7.73;;;5.50;;
10985;SDS011;5546;48.714;8.738;2023-02-11T15:18:33;10.13;;;5.60;;
10985;SDS011;5546;48.714;8.738;2023-02-11T15:21:06;7.97;;;5.33;;
10985;SDS011;5546;48.714;8.738;2023-02-11T15:23:32;10.30;;;5.80;;
10985;SDS011;5546;48.714;8.738;2023-02-11T15:25:58;8.73;;;6.00;;
10985;SDS011;5546;48.714;8.738;2023-02-11T15:28:29;9.07;;;5.70;;
10985;SDS011;5546;48.714;8.738;2023-02-11T15:30:59;7.60;;;5.03;;
10985;SDS011;5546;48.714;8.738;2023-02-11T15:33:26;7.47;;;5.33;;
10985;SDS011;5546;48.714;8.738;2023-02-11T15:35:56;8.40;;;5.93;;
10985;SDS011;5546;48.714;8.738;2023-02-11T15:38:22;10.83;;;6.30;;
10985;SDS011;5546;48.714;8.738;2023-02-11T15:40:52;8.97;;;5.40;;
10985;SDS011;5546;48.714;8.738;2023-02-11T15:43:20;7.47;;;5.30;;
10985;SDS011;5546;48.714;8.738;2023-02-11T15:45:53;8.33;;;5.53;;
10985;SDS011;5546;48.714;8.738;2023-02-11T15:48:23;8.27;;;5.90;;
10985;SDS011;5546;48.714;8.738;2023-02-11T15:50:58;9.40;;;5.97;;
10985;SDS011;5546;48.714;8.738;2023-02-11T15:55:59;8.50;;;5.00;;
10985;SDS011;5546;48.714;8.738;2023-02-11T15:58:35;7.93;;;5.17;;
10985;SDS011;5546;48.714;8.738;2023-02-11T16:01:02;7.50;;;5.50;;
10985;SDS011;5546;48.714;8.738;2023-02-11T16:03:28;11.87;;;6.40;;
10985;SDS011;5546;48.714;8.738;2023-02-11T16:05:56;10.37;;;6.60;;
10985;SDS011;5546;48.714;8.738;2023-02-11T16:08:42;10.47;;;6.80;;
10985;SDS011;5546;48.714;8.738;2023-02-11T16:11:28;9.93;;;6.63;;
10985;SDS011;5546;48.714;8.738;2023-02-11T16:13:57;14.57;;;7.27;;
10985;SDS011;5546;48.714;8.738;2023-02-11T16:16:24;10.87;;;7.47;;
10985;SDS011;5546;48.714;8.738;2023-02-11T16:18:56;9.70;;;7.27;;
10985;SDS011;5546;48.714;8.738;2023-02-11T16:21:31;12.07;;;7.63;;
10985;SDS011;5546;48.714;8.738;2023-02-11T16:24:05;10.93;;;7.97;;
10985;SDS011;5546;48.714;8.738;2023-02-11T16:26:36;11.37;;;7.77;;
10985;SDS011;5546;48.714;8.738;2023-02-11T16:29:06;13.30;;;8.90;;
10985;SDS011;5546;48.714;8.738;2023-02-11T16:31:36;14.83;;;9.03;;
10985;SDS011;5546;48.714;8.738;2023-02-11T16:34:15;18.10;;;10.83;;
10985;SDS011;5546;48.714;8.738;2023-02-11T16:36:42;16.53;;;10.40;;
10985;SDS011;5546;48.714;8.738;2023-02-11T16:39:08;13.87;;;10.10;;
10985;SDS011;5546;48.714;8.738;2023-02-11T16:41:34;14.90;;;10.10;;
10985;SDS011;5546;48.714;8.738;2023-02-11T16:44:00;15.93;;;11.80;;
10985;SDS011;5546;48.714;8.738;2023-02-11T16:46:25;15.27;;;10.97;;
10985;SDS011;5546;48.714;8.738;2023-02-11T16:48:51;16.80;;;9.93;;
10985;SDS011;5546;48.714;8.738;2023-02-11T16:51:18;26.10;;;14.27;;
10985;SDS011;5546;48.714;8.738;2023-02-11T16:53:43;17.27;;;10.97;;
10985;SDS011;5546;48.714;8.738;2023-02-11T16:56:13;29.17;;;17.13;;
10985;SDS011;5546;48.714;8.738;2023-02-11T16:58:40;18.67;;;12.17;;
10985;SDS011;5546;48.714;8.738;2023-02-11T17:01:06;19.73;;;12.53;;
10985;SDS011;5546;48.714;8.738;2023-02-11T17:03:32;18.17;;;12.07;;
10985;SDS011;5546;48.714;8.738;2023-02-11T17:06:05;15.47;;;11.07;;
10985;SDS011;5546;48.714;8.738;2023-02-11T17:08:33;16.77;;;9.33;;
10985;SDS011;5546;48.714;8.738;2023-02-11T17:10:59;15.70;;;9.60;;
10985;SDS011;5546;48.714;8.738;2023-02-11T17:13:25;14.03;;;9.93;;
10985;SDS011;5546;48.714;8.738;2023-02-11T17:15:51;16.53;;;10.43;;
10985;SDS011;5546;48.714;8.738;2023-02-11T17:18:16;18.10;;;10.10;;
10985;SDS011;5546;48.714;8.738;2023-02-11T17:20:42;19.77;;;11.20;;
10985;SDS011;5546;48.714;8.738;2023-02-11T17:23:07;15.93;;;10.67;;
10985;SDS011;5546;48.714;8.738;2023-02-11T17:25:33;19.20;;;10.77;;
10985;SDS011;5546;48.714;8.738;2023-02-11T17:28:01;18.33;;;12.10;;
10985;SDS011;5546;48.714;8.738;2023-02-11T17:30:30;18.57;;;13.17;;
10985;SDS011;5546;48.714;8.738;2023-02-11T17:32:55;21.40;;;16.90;;
10985;SDS011;5546;48.714;8.738;2023-02-11T17:35:21;25.40;;;13.97;;
10985;SDS011;5546;48.714;8.738;2023-02-11T17:37:46;21.23;;;14.50;;